Main page
METAR-TAF:

METAR-TAF

Airports :

Bilbao Airport

Bilbao, Spain

latitude: 43-18N, longitude: 002-56W, elevation: 42 m

Current weather observation

The report was made 26 minutes ago, at 21:30 UTC
Wind 3 kt from the East
Temperature 9°C
Humidity 100%
Pressure 1021 hPa
Visibility 10 km or more
Few clouds at a height of 4400 ft

METAR: LEBB 212130Z 09003KT 9999 FEW044 09/09 Q1021 NOSIG

Time: 23:56 (21:56 UTC)

Forecast

The report was made 4 hours and 56 minutes ago, at 17:00 UTC
Forecast valid from 21 at 18 UTC to 22 at 18 UTC
Wind 5 kt from variable directions
Visibility 10 km or more
Scattered clouds at a height of 4000 ft
Probability 40% :
Temporary
from 21 at 18 UTC to 21 at 20 UTC
Scattered clouds at a height of 3000 ft, Towering cumulus.
Temporary
from 22 at 12 UTC to 22 at 18 UTC
Wind 10 kt from the North
Visibility: 3000 m
Broken clouds at a height of 1000 ft
rain

TAF: LEBB 211700Z 2118/2218 VRB05KT 9999 SCT040 TX16/2214Z TN07/2206Z PROB40 TEMPO 2118/2120 SCT030TCU TEMPO 2212/2218 36010KT 3000 RA BKN010

Weather observations and forecasts of more than 4000 airports (METAR and TAF reports).

The available stations are represented by yellow and red dots on the map.

Hover mouse over dot to see the name of the station.

Then click to see weather observations and forecasts.

To change the map : click on the green buttons with a black cross to zoom in, on the green button with a dash to zoom out, or on the green arrows for adjacent maps.


METAR-TAF: